createdAt,value
2022-09-17T00:01:31.480Z,10.92
2022-09-17T00:04:04.708Z,10.79
2022-09-17T00:06:35.301Z,10.95
2022-09-17T00:09:04.484Z,10.98
2022-09-17T00:11:35.183Z,11.00
2022-09-17T00:14:06.163Z,10.94
2022-09-17T00:16:36.949Z,10.85
2022-09-17T00:19:08.207Z,10.91
2022-09-17T00:21:36.179Z,10.91
2022-09-17T00:24:07.245Z,10.88
2022-09-17T00:26:37.210Z,10.69
2022-09-17T00:29:06.300Z,10.81
2022-09-17T00:31:35.968Z,10.69
2022-09-17T00:34:05.818Z,10.86
2022-09-17T00:36:36.504Z,10.85
2022-09-17T00:39:06.144Z,10.75
2022-09-17T00:41:36.339Z,10.74
2022-09-17T00:44:41.272Z,10.82
2022-09-17T00:47:16.843Z,10.71
2022-09-17T00:49:45.261Z,10.58
2022-09-17T00:52:19.896Z,10.81
2022-09-17T00:54:53.974Z,10.86
2022-09-17T00:57:22.088Z,10.78
2022-09-17T00:59:50.419Z,10.66
2022-09-17T01:02:20.877Z,10.61
2022-09-17T01:04:48.962Z,10.46
2022-09-17T01:07:33.298Z,10.43
2022-09-17T01:10:09.465Z,10.47
2022-09-17T01:12:58.142Z,10.41
2022-09-17T01:15:33.144Z,10.45
2022-09-17T01:18:23.024Z,10.32
2022-09-17T01:21:17.976Z,10.19
2022-09-17T01:24:13.966Z,10.26
2022-09-17T01:27:20.762Z,10.18
2022-09-17T01:30:05.508Z,10.02
2022-09-17T01:32:39.903Z,10.31
2022-09-17T01:35:15.070Z,10.45
2022-09-17T01:38:01.859Z,10.34
2022-09-17T01:40:33.929Z,10.29
2022-09-17T01:43:08.728Z,10.41
2022-09-17T01:45:42.873Z,10.32
2022-09-17T01:48:18.171Z,10.34
2022-09-17T01:50:51.982Z,10.44
2022-09-17T01:53:22.039Z,10.63
2022-09-17T01:55:53.198Z,10.53
2022-09-17T01:58:27.244Z,10.57
2022-09-17T02:01:00.510Z,10.45
2022-09-17T02:03:35.844Z,10.43
2022-09-17T02:06:12.072Z,10.18
2022-09-17T02:08:46.976Z,10.33
2022-09-17T02:11:17.302Z,10.25
2022-09-17T02:13:49.745Z,10.11
2022-09-17T02:16:21.328Z,10.17
2022-09-17T02:18:56.924Z,10.16
2022-09-17T02:21:33.008Z,10.18
2022-09-17T02:24:10.091Z,10.06
2022-09-17T02:26:45.905Z,10.20
2022-09-17T02:29:21.049Z,10.13
2022-09-17T02:31:49.289Z,10.14
2022-09-17T02:34:18.866Z,9.94
2022-09-17T02:36:46.946Z,10.08
2022-09-17T02:39:14.905Z,10.23
2022-09-17T02:41:53.251Z,10.36
2022-09-17T02:44:31.750Z,10.27
2022-09-17T02:47:14.453Z,10.32
2022-09-17T02:50:01.621Z,10.28
2022-09-17T02:52:37.930Z,10.26
2022-09-17T02:55:15.735Z,10.28
2022-09-17T02:57:48.570Z,9.98
2022-09-17T03:00:20.338Z,10.07
2022-09-17T03:02:51.688Z,10.02
2022-09-17T03:05:23.105Z,10.17
2022-09-17T03:07:51.163Z,10.29
2022-09-17T03:10:20.069Z,10.34
2022-09-17T03:12:48.018Z,10.09
2022-09-17T03:15:16.121Z,10.41
2022-09-17T03:17:44.048Z,10.34
2022-09-17T03:20:12.050Z,10.35
2022-09-17T03:22:41.346Z,10.35
2022-09-17T03:25:10.318Z,10.36
2022-09-17T03:27:38.275Z,10.31
2022-09-17T03:30:07.465Z,10.02
2022-09-17T03:32:35.426Z,10.41
2022-09-17T03:35:03.413Z,10.42
2022-09-17T03:37:33.219Z,10.46
2022-09-17T03:40:03.160Z,10.40
2022-09-17T03:42:31.101Z,10.47
2022-09-17T03:44:59.026Z,10.39
2022-09-17T03:47:26.975Z,10.35
2022-09-17T03:49:54.982Z,10.23
2022-09-17T03:52:23.185Z,10.43
2022-09-17T03:54:51.130Z,10.47
2022-09-17T03:57:20.547Z,10.25
2022-09-17T03:59:48.493Z,10.39
2022-09-17T04:02:16.545Z,10.33
2022-09-17T04:04:44.618Z,10.30
2022-09-17T04:07:12.585Z,10.17
2022-09-17T04:09:40.537Z,10.28
2022-09-17T04:12:08.579Z,10.24
2022-09-17T04:14:37.944Z,10.22
2022-09-17T04:17:05.892Z,10.14
2022-09-17T04:19:33.888Z,10.12
2022-09-17T04:22:01.831Z,10.11
2022-09-17T04:24:29.832Z,10.12
2022-09-17T04:26:57.709Z,10.09
2022-09-17T04:29:26.171Z,10.20
2022-09-17T04:31:55.494Z,10.24
2022-09-17T04:34:23.663Z,10.28
2022-09-17T04:36:51.560Z,10.15
2022-09-17T04:39:19.490Z,10.19
2022-09-17T04:41:48.083Z,10.17
2022-09-17T04:44:16.023Z,10.12
2022-09-17T04:46:43.974Z,10.30
2022-09-17T04:49:13.407Z,10.29
2022-09-17T04:51:41.304Z,10.17
2022-09-17T04:54:09.229Z,10.22
2022-09-17T04:56:37.148Z,10.33
2022-09-17T04:59:05.135Z,10.32
2022-09-17T05:01:33.068Z,10.28
2022-09-17T05:04:01.000Z,10.15
2022-09-17T05:06:30.319Z,10.23
2022-09-17T05:08:58.266Z,10.28
2022-09-17T05:11:26.184Z,10.26
2022-09-17T05:13:54.113Z,10.22
2022-09-17T05:16:22.483Z,10.16
2022-09-17T05:18:51.789Z,10.22
2022-09-17T05:21:20.576Z,10.22
2022-09-17T05:23:50.007Z,10.17
2022-09-17T05:26:17.954Z,10.21
2022-09-17T05:28:45.893Z,10.19
2022-09-17T05:31:14.001Z,10.22
2022-09-17T05:33:41.993Z,10.12
2022-09-17T05:36:09.984Z,10.27
2022-09-17T05:38:38.340Z,10.34
2022-09-17T05:41:08.407Z,10.25
2022-09-17T05:43:36.502Z,10.28
2022-09-17T05:46:05.955Z,10.20
2022-09-17T05:48:34.612Z,10.19
2022-09-17T05:51:02.620Z,10.26
2022-09-17T05:53:30.671Z,10.20
2022-09-17T05:55:58.884Z,10.23
2022-09-17T05:58:29.359Z,10.34
2022-09-17T06:00:57.343Z,10.38
2022-09-17T06:03:25.266Z,10.40
2022-09-17T06:05:55.294Z,10.48
2022-09-17T06:08:23.454Z,10.41
2022-09-17T06:10:51.919Z,10.28
2022-09-17T06:13:20.152Z,10.50
2022-09-17T06:15:52.533Z,10.42
2022-09-17T06:18:21.511Z,10.23
2022-09-17T06:20:56.121Z,10.18
2022-09-17T06:23:24.212Z,9.88
2022-09-17T06:25:54.144Z,10.20
2022-09-17T06:28:22.282Z,10.17
2022-09-17T06:30:54.422Z,10.12
2022-09-17T06:33:22.716Z,9.86
2022-09-17T06:35:57.036Z,9.85
2022-09-17T06:38:24.930Z,10.04
2022-09-17T06:40:53.273Z,10.13
2022-09-17T06:43:21.493Z,10.20
2022-09-17T06:45:54.816Z,9.92
2022-09-17T06:48:23.084Z,10.20
2022-09-17T06:50:51.239Z,10.45
2022-09-17T06:53:20.081Z,10.50
2022-09-17T06:55:48.262Z,10.37
2022-09-17T06:58:16.271Z,10.20
2022-09-17T07:00:45.065Z,10.38
2022-09-17T07:03:14.364Z,10.48
2022-09-17T07:05:45.292Z,10.45
2022-09-17T07:08:13.161Z,10.54
2022-09-17T07:10:41.083Z,10.49
2022-09-17T07:13:08.994Z,10.53
2022-09-17T07:15:36.913Z,10.65
2022-09-17T07:18:09.532Z,10.88
2022-09-17T07:20:39.643Z,11.06
2022-09-17T07:23:07.508Z,10.94
2022-09-17T07:25:35.427Z,11.09
2022-09-17T07:28:04.577Z,11.17
2022-09-17T07:30:32.514Z,11.16
2022-09-17T07:33:02.504Z,11.01
2022-09-17T07:35:30.436Z,10.94
2022-09-17T07:38:00.705Z,11.03
2022-09-17T07:40:28.762Z,11.16
2022-09-17T07:42:59.295Z,11.29
2022-09-17T07:45:27.253Z,11.10
2022-09-17T07:47:55.125Z,11.01
2022-09-17T07:50:23.126Z,11.19
2022-09-17T07:52:51.051Z,11.19
2022-09-17T07:55:20.473Z,11.32
2022-09-17T07:57:53.017Z,11.21
2022-09-17T08:00:21.203Z,11.15
2022-09-17T08:02:54.767Z,11.13
2022-09-17T08:05:23.070Z,11.06
2022-09-17T08:07:51.657Z,11.68
2022-09-17T08:10:22.982Z,11.68
2022-09-17T08:12:51.903Z,11.81
2022-09-17T08:15:20.094Z,11.72
2022-09-17T08:17:49.288Z,12.13
2022-09-17T08:20:19.521Z,12.67
2022-09-17T08:22:50.305Z,12.06
2022-09-17T08:25:21.364Z,11.87
2022-09-17T08:27:50.735Z,11.69
2022-09-17T08:30:19.953Z,11.80
2022-09-17T08:32:48.926Z,11.69
2022-09-17T08:35:18.624Z,11.90
2022-09-17T08:37:51.026Z,11.89
2022-09-17T08:40:23.469Z,11.92
2022-09-17T08:42:59.247Z,12.09
2022-09-17T08:45:28.128Z,11.64
2022-09-17T08:48:05.130Z,12.09
2022-09-17T08:50:35.600Z,12.05
2022-09-17T08:53:35.127Z,12.23
2022-09-17T08:56:11.629Z,12.22
2022-09-17T08:58:49.813Z,12.26
2022-09-17T09:01:29.148Z,11.87
2022-09-17T09:04:13.949Z,12.25
2022-09-17T09:06:48.076Z,12.35
2022-09-17T09:09:18.563Z,12.47
2022-09-17T09:11:49.647Z,12.59
2022-09-17T09:14:23.794Z,12.22
2022-09-17T09:16:53.638Z,12.59
2022-09-17T09:19:27.092Z,12.70
2022-09-17T09:22:06.337Z,12.85
2022-09-17T09:24:42.823Z,13.03
2022-09-17T09:27:20.359Z,12.53
2022-09-17T09:30:03.685Z,12.50
2022-09-17T09:32:49.406Z,12.32
2022-09-17T09:35:20.979Z,11.92
2022-09-17T09:37:58.945Z,11.82
2022-09-17T09:40:38.336Z,11.82
2022-09-17T09:43:20.205Z,11.65
2022-09-17T09:46:25.862Z,12.05
2022-09-17T09:49:06.065Z,12.23
2022-09-17T09:51:44.010Z,12.42
2022-09-17T09:54:25.363Z,12.54
2022-09-17T09:56:58.569Z,12.54
2022-09-17T09:59:28.168Z,12.45
2022-09-17T10:01:56.589Z,13.06
2022-09-17T10:04:26.698Z,13.13
2022-09-17T10:07:02.999Z,13.34
2022-09-17T10:09:32.877Z,13.39
2022-09-17T10:12:03.298Z,13.41
2022-09-17T10:14:34.129Z,13.54
2022-09-17T10:17:15.624Z,12.86
2022-09-17T10:19:44.441Z,13.21
2022-09-17T10:22:27.118Z,13.45
2022-09-17T10:24:57.219Z,13.53
2022-09-17T10:27:26.663Z,13.48
2022-09-17T10:30:03.867Z,13.35
2022-09-17T10:32:32.179Z,13.62
2022-09-17T10:35:05.678Z,13.37
2022-09-17T10:37:36.379Z,13.32
2022-09-17T10:40:28.588Z,13.84
2022-09-17T10:43:18.928Z,13.75
2022-09-17T10:45:58.877Z,14.18
2022-09-17T10:48:30.042Z,14.50
2022-09-17T10:50:58.852Z,15.23
2022-09-17T10:53:28.392Z,15.83
2022-09-17T10:56:04.761Z,15.42
2022-09-17T10:58:48.879Z,15.13
2022-09-17T11:01:26.767Z,14.00
2022-09-17T11:04:24.460Z,13.98
2022-09-17T11:07:08.698Z,14.52
2022-09-17T11:09:47.324Z,14.35
2022-09-17T11:12:37.036Z,13.98
2022-09-17T11:15:18.354Z,14.39
2022-09-17T11:18:16.615Z,14.23
2022-09-17T11:21:00.068Z,13.86
2022-09-17T11:23:51.711Z,14.04
2022-09-17T11:26:31.356Z,14.00
2022-09-17T11:29:15.507Z,14.27
2022-09-17T11:31:55.603Z,13.69
2022-09-17T11:34:32.907Z,14.21
2022-09-17T11:37:07.181Z,14.51
2022-09-17T11:39:42.607Z,14.50
2022-09-17T11:42:17.341Z,14.37
2022-09-17T11:44:51.633Z,13.92
2022-09-17T11:47:24.856Z,14.04
2022-09-17T11:50:00.081Z,14.12
2022-09-17T11:52:33.196Z,13.89
2022-09-17T11:55:11.257Z,14.00
2022-09-17T11:57:43.193Z,13.97
2022-09-17T12:00:18.114Z,13.84
2022-09-17T12:02:53.410Z,14.24
2022-09-17T12:05:26.929Z,15.32
2022-09-17T12:08:00.481Z,15.67
2022-09-17T12:10:39.841Z,15.60
2022-09-17T12:13:20.160Z,15.02
2022-09-17T12:15:53.575Z,14.57
2022-09-17T12:18:32.996Z,14.45
2022-09-17T12:21:06.274Z,14.00
2022-09-17T12:23:41.427Z,13.78
2022-09-17T12:26:26.246Z,13.21
2022-09-17T12:29:04.957Z,13.56
2022-09-17T12:31:46.293Z,13.27
2022-09-17T12:34:29.848Z,13.26
2022-09-17T12:37:10.363Z,12.86
2022-09-17T12:40:04.531Z,12.98
2022-09-17T12:43:06.124Z,13.49
2022-09-17T12:45:50.827Z,14.09
2022-09-17T12:48:41.697Z,14.53
2022-09-17T12:51:23.665Z,14.70
2022-09-17T12:54:02.283Z,14.34
2022-09-17T12:56:43.616Z,14.05
2022-09-17T12:59:14.635Z,13.68
2022-09-17T13:01:50.435Z,13.66
2022-09-17T13:05:01.322Z,13.70
2022-09-17T13:08:00.820Z,13.74
2022-09-17T13:11:04.223Z,14.10
2022-09-17T13:13:43.176Z,13.71
2022-09-17T13:16:20.008Z,14.36
2022-09-17T13:19:15.451Z,14.59
2022-09-17T13:21:52.651Z,15.13
2022-09-17T13:24:25.168Z,15.01
2022-09-17T13:26:56.222Z,15.72
2022-09-17T13:29:57.395Z,16.19
2022-09-17T13:32:45.540Z,15.65
2022-09-17T13:35:46.670Z,15.41
2022-09-17T13:38:14.892Z,15.26
2022-09-17T13:40:42.918Z,15.21
2022-09-17T13:43:15.419Z,15.16
2022-09-17T13:46:18.762Z,14.86
2022-09-17T13:48:53.151Z,14.68
2022-09-17T13:51:53.861Z,14.79
2022-09-17T13:54:24.977Z,15.36
2022-09-17T13:57:15.152Z,15.64
2022-09-17T13:59:57.087Z,15.52
2022-09-17T14:02:31.263Z,15.25
2022-09-17T14:05:29.285Z,14.73
2022-09-17T14:08:28.730Z,14.51
2022-09-17T14:10:58.758Z,14.18
2022-09-17T14:13:45.040Z,14.55
2022-09-17T14:16:35.941Z,14.45
2022-09-17T14:19:19.629Z,14.21
2022-09-17T14:21:59.705Z,14.28
2022-09-17T14:24:33.478Z,14.10
2022-09-17T14:27:08.072Z,14.01
2022-09-17T14:30:04.211Z,14.09
2022-09-17T14:32:46.164Z,13.98
2022-09-17T14:35:20.158Z,14.65
2022-09-17T14:37:54.181Z,15.26
2022-09-17T14:40:24.071Z,15.65
2022-09-17T14:42:55.821Z,15.38
2022-09-17T14:45:29.105Z,15.73
2022-09-17T14:48:27.972Z,16.41
2022-09-17T14:51:18.543Z,16.27
2022-09-17T14:53:47.215Z,16.57
2022-09-17T14:56:17.837Z,16.26
2022-09-17T14:58:50.674Z,15.80
2022-09-17T15:01:24.789Z,15.23
2022-09-17T15:04:12.222Z,15.18
2022-09-17T15:06:40.233Z,14.86
2022-09-17T15:09:16.461Z,14.77
2022-09-17T15:11:49.721Z,14.63
2022-09-17T15:14:22.431Z,14.64
2022-09-17T15:16:53.466Z,14.60
2022-09-17T15:19:28.629Z,14.37
2022-09-17T15:21:58.772Z,14.43
2022-09-17T15:24:39.732Z,14.63
2022-09-17T15:27:14.035Z,14.51
2022-09-17T15:29:45.927Z,14.32
2022-09-17T15:32:15.368Z,14.52
2022-09-17T15:34:44.825Z,14.37
2022-09-17T15:37:20.782Z,14.38
2022-09-17T15:39:52.140Z,14.53
2022-09-17T15:42:22.928Z,14.68
2022-09-17T15:44:51.574Z,14.23
2022-09-17T15:47:52.186Z,14.01
2022-09-17T15:50:23.695Z,13.95
2022-09-17T15:52:52.600Z,13.84
2022-09-17T15:55:31.685Z,13.67
2022-09-17T15:58:00.871Z,13.48
2022-09-17T16:00:29.064Z,13.54
2022-09-17T16:02:57.207Z,13.36
2022-09-17T16:05:55.780Z,13.16
2022-09-17T16:08:25.642Z,13.00
2022-09-17T16:10:53.912Z,13.07
2022-09-17T16:13:26.439Z,12.89
2022-09-17T16:15:56.806Z,13.12
2022-09-17T16:18:25.017Z,13.08
2022-09-17T16:20:54.312Z,12.99
2022-09-17T16:23:22.273Z,13.02
2022-09-17T16:25:50.949Z,12.96
2022-09-17T16:28:21.195Z,12.89
2022-09-17T16:30:50.585Z,12.95
2022-09-17T16:33:20.218Z,12.91
2022-09-17T16:35:48.301Z,12.82
2022-09-17T16:38:17.964Z,12.51
2022-09-17T16:40:47.944Z,12.66
2022-09-17T16:43:16.662Z,12.56
2022-09-17T16:45:45.374Z,12.76
2022-09-17T16:48:13.404Z,12.62
2022-09-17T16:50:43.225Z,12.68
2022-09-17T16:53:11.419Z,12.53
2022-09-17T16:55:40.902Z,12.52
2022-09-17T16:58:08.966Z,12.52
2022-09-17T17:00:37.520Z,12.51
2022-09-17T17:03:06.946Z,12.37
2022-09-17T17:05:38.225Z,12.24
2022-09-17T17:08:07.191Z,12.42
2022-09-17T17:10:35.362Z,12.20
2022-09-17T17:13:04.924Z,12.18
2022-09-17T17:15:33.165Z,12.30
2022-09-17T17:18:01.101Z,12.22
2022-09-17T17:20:29.547Z,12.04
2022-09-17T17:22:57.546Z,11.89
2022-09-17T17:25:27.136Z,11.79
2022-09-17T17:27:55.197Z,11.74
2022-09-17T17:30:24.714Z,11.61
2022-09-17T17:32:54.035Z,11.75
2022-09-17T17:35:22.133Z,11.74
2022-09-17T17:37:50.692Z,11.68
2022-09-17T17:40:19.041Z,11.40
2022-09-17T17:42:47.633Z,11.53
2022-09-17T17:45:15.978Z,11.58
2022-09-17T17:47:45.347Z,11.55
2022-09-17T17:50:13.506Z,11.58
2022-09-17T17:52:43.574Z,11.67
2022-09-17T17:55:11.541Z,11.72
2022-09-17T17:57:39.487Z,11.47
2022-09-17T18:00:09.113Z,11.64
2022-09-17T18:02:37.197Z,11.44
2022-09-17T18:05:07.452Z,11.71
2022-09-17T18:07:35.542Z,11.59
2022-09-17T18:10:03.625Z,11.54
2022-09-17T18:12:33.500Z,11.24
2022-09-17T18:15:01.456Z,11.47
2022-09-17T18:17:31.564Z,11.74
2022-09-17T18:19:59.511Z,11.53
2022-09-17T18:22:28.855Z,11.54
2022-09-17T18:24:56.783Z,11.61
2022-09-17T18:27:24.779Z,11.53
2022-09-17T18:29:52.707Z,11.49
2022-09-17T18:32:20.614Z,11.51
2022-09-17T18:34:49.659Z,11.32
2022-09-17T18:37:19.565Z,11.33
2022-09-17T18:39:58.428Z,11.46
2022-09-17T18:42:27.317Z,11.58
2022-09-17T18:44:55.241Z,11.83
2022-09-17T18:47:23.277Z,11.69
2022-09-17T18:49:51.198Z,11.84
2022-09-17T18:52:20.628Z,11.62
2022-09-17T18:54:49.989Z,11.65
2022-09-17T18:57:17.981Z,11.68
2022-09-17T18:59:46.376Z,11.72
2022-09-17T19:02:14.374Z,11.67
2022-09-17T19:04:42.377Z,11.51
2022-09-17T19:07:10.342Z,11.39
2022-09-17T19:09:38.258Z,11.38
2022-09-17T19:12:07.826Z,11.52
2022-09-17T19:14:35.778Z,11.53
2022-09-17T19:17:03.729Z,11.58
2022-09-17T19:19:31.673Z,11.41
2022-09-17T19:21:59.666Z,11.28
2022-09-17T19:24:27.625Z,11.57
2022-09-17T19:26:55.659Z,11.25
2022-09-17T19:29:25.211Z,11.20
2022-09-17T19:31:53.172Z,11.16
2022-09-17T19:34:21.145Z,11.07
2022-09-17T19:36:49.179Z,11.13
2022-09-17T19:39:17.739Z,11.11
2022-09-17T19:41:45.679Z,10.84
2022-09-17T19:44:13.624Z,10.91
2022-09-17T19:46:43.002Z,10.95
2022-09-17T19:49:11.223Z,10.84
2022-09-17T19:51:39.146Z,10.88
2022-09-17T19:54:08.144Z,10.89
2022-09-17T19:56:36.079Z,11.06
2022-09-17T19:59:04.118Z,11.04
2022-09-17T20:01:32.197Z,11.07
2022-09-17T20:04:03.206Z,11.09
2022-09-17T20:06:34.223Z,11.11
2022-09-17T20:09:02.265Z,11.21
2022-09-17T20:11:30.274Z,11.06
2022-09-17T20:13:59.523Z,10.87
2022-09-17T20:16:27.539Z,11.06
2022-09-17T20:18:55.860Z,11.09
2022-09-17T20:21:27.842Z,10.92
2022-09-17T20:24:05.974Z,11.00
2022-09-17T20:26:35.902Z,10.97
2022-09-17T20:29:05.263Z,10.94
2022-09-17T20:31:34.721Z,11.08
2022-09-17T20:34:07.293Z,11.07
2022-09-17T20:36:38.152Z,11.04
2022-09-17T20:39:14.222Z,10.99
2022-09-17T20:41:50.962Z,10.83
2022-09-17T20:44:19.010Z,10.98
2022-09-17T20:46:47.409Z,10.78
2022-09-17T20:49:15.456Z,10.96
2022-09-17T20:51:44.795Z,10.77
2022-09-17T20:54:12.808Z,10.84
2022-09-17T20:56:40.808Z,10.71
2022-09-17T20:59:15.294Z,10.83
2022-09-17T21:01:45.599Z,10.90
2022-09-17T21:04:19.074Z,10.76
2022-09-17T21:06:51.864Z,10.85
2022-09-17T21:09:19.968Z,10.78
2022-09-17T21:11:49.342Z,10.83
2022-09-17T21:14:18.317Z,10.74
2022-09-17T21:16:47.079Z,10.75
2022-09-17T21:19:16.230Z,10.71
2022-09-17T21:21:44.401Z,10.60
2022-09-17T21:24:13.825Z,10.37
2022-09-17T21:26:41.712Z,10.63
2022-09-17T21:29:09.778Z,10.54
2022-09-17T21:31:38.392Z,10.45
2022-09-17T21:34:09.244Z,10.52
2022-09-17T21:36:38.789Z,10.45
2022-09-17T21:39:08.996Z,10.44
2022-09-17T21:41:42.331Z,10.53
2022-09-17T21:44:11.415Z,10.36
2022-09-17T21:46:40.363Z,10.16
2022-09-17T21:49:08.699Z,10.33
2022-09-17T21:51:38.633Z,10.43
2022-09-17T21:54:08.634Z,10.44
2022-09-17T21:56:38.310Z,10.42
2022-09-17T21:59:08.185Z,10.47
2022-09-17T22:01:40.291Z,10.39
2022-09-17T22:04:09.589Z,10.24
2022-09-17T22:06:38.115Z,10.29
2022-09-17T22:09:09.062Z,10.14
2022-09-17T22:11:39.187Z,10.28
2022-09-17T22:14:11.336Z,10.30
2022-09-17T22:16:41.731Z,10.24
2022-09-17T22:19:10.924Z,10.17
2022-09-17T22:21:41.278Z,10.16
2022-09-17T22:24:10.699Z,10.33
2022-09-17T22:26:43.409Z,10.38
2022-09-17T22:29:14.402Z,10.42
2022-09-17T22:31:43.160Z,10.37
2022-09-17T22:34:12.336Z,10.49
2022-09-17T22:36:40.723Z,10.15
2022-09-17T22:39:09.217Z,10.33
2022-09-17T22:41:44.352Z,10.42
2022-09-17T22:44:14.661Z,10.43
2022-09-17T22:46:43.012Z,10.44
2022-09-17T22:49:12.439Z,10.40
2022-09-17T22:51:42.129Z,10.36
2022-09-17T22:54:12.343Z,10.39
2022-09-17T22:56:42.386Z,10.46
2022-09-17T22:59:10.689Z,10.40
2022-09-17T23:01:40.147Z,10.37
2022-09-17T23:04:08.397Z,10.15
2022-09-17T23:06:38.085Z,10.37
2022-09-17T23:09:06.696Z,10.37
2022-09-17T23:11:36.941Z,10.35
2022-09-17T23:14:08.349Z,10.45
2022-09-17T23:16:38.294Z,10.16
2022-09-17T23:19:06.755Z,10.33
2022-09-17T23:21:34.910Z,10.43
2022-09-17T23:24:03.832Z,10.37
2022-09-17T23:26:31.853Z,10.40
2022-09-17T23:29:04.356Z,10.31
2022-09-17T23:31:36.060Z,10.20
2022-09-17T23:34:05.388Z,10.42
2022-09-17T23:36:35.089Z,10.34
2022-09-17T23:39:03.454Z,10.27
2022-09-17T23:41:33.644Z,10.37
2022-09-17T23:44:03.537Z,10.32
2022-09-17T23:46:34.978Z,10.36
2022-09-17T23:49:04.077Z,10.38
2022-09-17T23:51:34.983Z,10.29
2022-09-17T23:54:05.293Z,10.32
2022-09-17T23:56:33.237Z,10.36
2022-09-17T23:59:02.546Z,10.20
